sensor_id;sensor_type;location;lat;lon;timestamp;temperature;humidity
23100;DHT22;53791;50.696;4.396;2022-08-21T00:01:25;16.30;99.90
23100;DHT22;53791;50.696;4.396;2022-08-21T00:03:54;16.20;99.90
23100;DHT22;53791;50.696;4.396;2022-08-21T00:06:22;16.20;99.90
23100;DHT22;53791;50.696;4.396;2022-08-21T00:08:52;16.20;99.90
23100;DHT22;53791;50.696;4.396;2022-08-21T00:11:19;16.20;99.90
23100;DHT22;53791;50.696;4.396;2022-08-21T00:13:47;16.20;99.90
23100;DHT22;53791;50.696;4.396;2022-08-21T00:16:14;16.20;99.90
23100;DHT22;53791;50.696;4.396;2022-08-21T00:18:42;16.10;99.90
23100;DHT22;53791;50.696;4.396;2022-08-21T00:21:12;16.10;99.90
23100;DHT22;53791;50.696;4.396;2022-08-21T00:23:39;16.10;99.90
23100;DHT22;53791;50.696;4.396;2022-08-21T00:26:08;16.00;99.90
23100;DHT22;53791;50.696;4.396;2022-08-21T00:28:35;16.00;99.90
23100;DHT22;53791;50.696;4.396;2022-08-21T00:31:03;16.10;99.90
23100;DHT22;53791;50.696;4.396;2022-08-21T00:33:31;16.00;99.90
23100;DHT22;53791;50.696;4.396;2022-08-21T00:35:59;16.00;99.90
23100;DHT22;53791;50.696;4.396;2022-08-21T00:38:27;16.00;99.90
23100;DHT22;53791;50.696;4.396;2022-08-21T00:40:58;15.90;99.90
23100;DHT22;53791;50.696;4.396;2022-08-21T00:43:30;15.90;99.90
23100;DHT22;53791;50.696;4.396;2022-08-21T00:45:58;15.90;99.90
23100;DHT22;53791;50.696;4.396;2022-08-21T00:48:26;15.90;99.90
23100;DHT22;53791;50.696;4.396;2022-08-21T00:51:05;15.80;99.90
23100;DHT22;53791;50.696;4.396;2022-08-21T00:53:38;15.80;99.90
23100;DHT22;53791;50.696;4.396;2022-08-21T00:56:08;15.80;99.90
23100;DHT22;53791;50.696;4.396;2022-08-21T00:58:39;15.80;99.90
23100;DHT22;53791;50.696;4.396;2022-08-21T01:01:08;15.80;99.90
23100;DHT22;53791;50.696;4.396;2022-08-21T01:03:36;15.70;99.90
23100;DHT22;53791;50.696;4.396;2022-08-21T01:06:04;15.70;99.90
23100;DHT22;53791;50.696;4.396;2022-08-21T01:08:33;15.70;99.90
23100;DHT22;53791;50.696;4.396;2022-08-21T01:11:01;15.70;99.90
23100;DHT22;53791;50.696;4.396;2022-08-21T01:13:32;15.60;99.90
23100;DHT22;53791;50.696;4.396;2022-08-21T01:16:02;15.60;99.90
23100;DHT22;53791;50.696;4.396;2022-08-21T01:18:30;15.60;99.90
23100;DHT22;53791;50.696;4.396;2022-08-21T01:21:08;15.60;99.90
23100;DHT22;53791;50.696;4.396;2022-08-21T01:23:39;15.50;99.90
23100;DHT22;53791;50.696;4.396;2022-08-21T01:26:08;15.50;99.90
23100;DHT22;53791;50.696;4.396;2022-08-21T01:28:38;15.50;99.90
23100;DHT22;53791;50.696;4.396;2022-08-21T01:31:08;15.50;99.90
23100;DHT22;53791;50.696;4.396;2022-08-21T01:33:36;15.40;99.90
23100;DHT22;53791;50.696;4.396;2022-08-21T01:36:04;15.40;99.90
23100;DHT22;53791;50.696;4.396;2022-08-21T01:38:32;15.30;99.90
23100;DHT22;53791;50.696;4.396;2022-08-21T01:41:00;15.30;99.90
23100;DHT22;53791;50.696;4.396;2022-08-21T01:43:27;15.20;99.90
23100;DHT22;53791;50.696;4.396;2022-08-21T01:45:55;15.20;99.90
23100;DHT22;53791;50.696;4.396;2022-08-21T01:48:22;15.20;99.90
23100;DHT22;53791;50.696;4.396;2022-08-21T01:50:50;15.20;99.90
23100;DHT22;53791;50.696;4.396;2022-08-21T01:53:17;15.10;99.90
23100;DHT22;53791;50.696;4.396;2022-08-21T01:55:46;15.10;99.90
23100;DHT22;53791;50.696;4.396;2022-08-21T01:58:13;15.10;99.90
23100;DHT22;53791;50.696;4.396;2022-08-21T02:00:41;15.10;99.90
23100;DHT22;53791;50.696;4.396;2022-08-21T02:03:09;15.00;99.90
23100;DHT22;53791;50.696;4.396;2022-08-21T02:05:36;15.00;99.90
23100;DHT22;53791;50.696;4.396;2022-08-21T02:08:06;15.00;99.90
23100;DHT22;53791;50.696;4.396;2022-08-21T02:10:34;14.90;99.90
23100;DHT22;53791;50.696;4.396;2022-08-21T02:13:01;14.90;99.90
23100;DHT22;53791;50.696;4.396;2022-08-21T02:15:30;14.90;99.90
23100;DHT22;53791;50.696;4.396;2022-08-21T02:18:00;14.90;99.90
23100;DHT22;53791;50.696;4.396;2022-08-21T02:20:30;14.80;99.90
23100;DHT22;53791;50.696;4.396;2022-08-21T02:22:58;14.70;99.90
23100;DHT22;53791;50.696;4.396;2022-08-21T02:25:27;14.70;99.90
23100;DHT22;53791;50.696;4.396;2022-08-21T02:27:55;14.70;99.90
23100;DHT22;53791;50.696;4.396;2022-08-21T02:30:30;14.80;99.90
23100;DHT22;53791;50.696;4.396;2022-08-21T02:32:53;14.80;99.90
23100;DHT22;53791;50.696;4.396;2022-08-21T02:35:21;14.80;99.90
23100;DHT22;53791;50.696;4.396;2022-08-21T02:40:30;14.80;99.90
23100;DHT22;53791;50.696;4.396;2022-08-21T02:42:58;14.70;99.90
23100;DHT22;53791;50.696;4.396;2022-08-21T02:45:26;14.70;99.90
23100;DHT22;53791;50.696;4.396;2022-08-21T02:48:04;14.70;99.90
23100;DHT22;53791;50.696;4.396;2022-08-21T02:50:31;14.70;99.90
23100;DHT22;53791;50.696;4.396;2022-08-21T02:52:59;14.70;99.90
23100;DHT22;53791;50.696;4.396;2022-08-21T02:55:29;14.60;99.90
23100;DHT22;53791;50.696;4.396;2022-08-21T02:57:58;14.60;99.90
23100;DHT22;53791;50.696;4.396;2022-08-21T03:00:28;14.60;99.90
23100;DHT22;53791;50.696;4.396;2022-08-21T03:02:56;14.50;99.90
23100;DHT22;53791;50.696;4.396;2022-08-21T03:05:25;14.50;99.90
23100;DHT22;53791;50.696;4.396;2022-08-21T03:07:54;14.50;99.90
23100;DHT22;53791;50.696;4.396;2022-08-21T03:10:22;14.50;99.90
23100;DHT22;53791;50.696;4.396;2022-08-21T03:12:51;14.40;99.90
23100;DHT22;53791;50.696;4.396;2022-08-21T03:15:21;14.40;99.90
23100;DHT22;53791;50.696;4.396;2022-08-21T03:17:50;14.30;99.90
23100;DHT22;53791;50.696;4.396;2022-08-21T03:20:21;14.40;99.90
23100;DHT22;53791;50.696;4.396;2022-08-21T03:22:51;14.30;99.90
23100;DHT22;53791;50.696;4.396;2022-08-21T03:25:20;14.30;99.90
23100;DHT22;53791;50.696;4.396;2022-08-21T03:27:48;14.30;99.90
23100;DHT22;53791;50.696;4.396;2022-08-21T03:30:17;14.30;99.90
23100;DHT22;53791;50.696;4.396;2022-08-21T03:32:47;14.30;99.90
23100;DHT22;53791;50.696;4.396;2022-08-21T03:35:15;14.20;99.90
23100;DHT22;53791;50.696;4.396;2022-08-21T03:37:43;14.20;99.90
23100;DHT22;53791;50.696;4.396;2022-08-21T03:40:13;14.20;99.90
23100;DHT22;53791;50.696;4.396;2022-08-21T03:42:41;14.20;99.90
23100;DHT22;53791;50.696;4.396;2022-08-21T03:45:09;14.10;99.90
23100;DHT22;53791;50.696;4.396;2022-08-21T03:47:37;14.10;99.90
23100;DHT22;53791;50.696;4.396;2022-08-21T03:50:05;14.10;99.90
23100;DHT22;53791;50.696;4.396;2022-08-21T03:52:34;14.10;99.90
23100;DHT22;53791;50.696;4.396;2022-08-21T03:55:01;14.00;99.90
23100;DHT22;53791;50.696;4.396;2022-08-21T03:57:29;14.10;99.90
23100;DHT22;53791;50.696;4.396;2022-08-21T03:59:56;13.90;99.90
23100;DHT22;53791;50.696;4.396;2022-08-21T04:02:24;14.00;99.90
23100;DHT22;53791;50.696;4.396;2022-08-21T04:04:51;14.00;99.90
23100;DHT22;53791;50.696;4.396;2022-08-21T04:07:19;14.00;99.90
23100;DHT22;53791;50.696;4.396;2022-08-21T04:09:48;14.00;99.90
23100;DHT22;53791;50.696;4.396;2022-08-21T04:12:19;13.90;99.90
23100;DHT22;53791;50.696;4.396;2022-08-21T04:14:47;13.90;99.90
23100;DHT22;53791;50.696;4.396;2022-08-21T04:17:15;13.90;99.90
23100;DHT22;53791;50.696;4.396;2022-08-21T04:19:42;13.90;99.90
23100;DHT22;53791;50.696;4.396;2022-08-21T04:22:10;13.80;99.90
23100;DHT22;53791;50.696;4.396;2022-08-21T04:24:37;13.80;99.90
23100;DHT22;53791;50.696;4.396;2022-08-21T04:27:05;13.90;99.90
23100;DHT22;53791;50.696;4.396;2022-08-21T04:29:32;13.90;99.90
23100;DHT22;53791;50.696;4.396;2022-08-21T04:32:00;13.80;99.90
23100;DHT22;53791;50.696;4.396;2022-08-21T04:34:27;13.80;99.90
23100;DHT22;53791;50.696;4.396;2022-08-21T04:36:55;13.80;99.90
23100;DHT22;53791;50.696;4.396;2022-08-21T04:39:22;13.70;99.90
23100;DHT22;53791;50.696;4.396;2022-08-21T04:41:52;13.70;99.90
23100;DHT22;53791;50.696;4.396;2022-08-21T04:44:19;13.70;99.90
23100;DHT22;53791;50.696;4.396;2022-08-21T04:46:46;13.80;99.90
23100;DHT22;53791;50.696;4.396;2022-08-21T04:49:14;13.90;99.90
23100;DHT22;53791;50.696;4.396;2022-08-21T04:51:42;13.90;99.90
23100;DHT22;53791;50.696;4.396;2022-08-21T04:54:15;13.90;99.90
23100;DHT22;53791;50.696;4.396;2022-08-21T04:56:45;13.90;99.90
23100;DHT22;53791;50.696;4.396;2022-08-21T04:59:17;13.90;99.90
23100;DHT22;53791;50.696;4.396;2022-08-21T05:01:45;13.90;99.90
23100;DHT22;53791;50.696;4.396;2022-08-21T05:04:16;13.90;99.90
23100;DHT22;53791;50.696;4.396;2022-08-21T05:06:45;13.90;99.90
23100;DHT22;53791;50.696;4.396;2022-08-21T05:09:16;13.90;99.90
23100;DHT22;53791;50.696;4.396;2022-08-21T05:11:44;14.00;99.90
23100;DHT22;53791;50.696;4.396;2022-08-21T05:14:12;14.00;99.90
23100;DHT22;53791;50.696;4.396;2022-08-21T05:16:40;14.00;99.90
23100;DHT22;53791;50.696;4.396;2022-08-21T05:19:08;14.10;99.90
23100;DHT22;53791;50.696;4.396;2022-08-21T05:21:38;14.30;99.90
23100;DHT22;53791;50.696;4.396;2022-08-21T05:24:05;14.40;99.90
23100;DHT22;53791;50.696;4.396;2022-08-21T05:26:33;14.40;99.90
23100;DHT22;53791;50.696;4.396;2022-08-21T05:29:01;14.50;99.90
23100;DHT22;53791;50.696;4.396;2022-08-21T05:31:29;14.60;99.90
23100;DHT22;53791;50.696;4.396;2022-08-21T05:33:56;14.70;99.90
23100;DHT22;53791;50.696;4.396;2022-08-21T05:36:24;14.70;99.90
23100;DHT22;53791;50.696;4.396;2022-08-21T05:38:52;14.70;99.90
23100;DHT22;53791;50.696;4.396;2022-08-21T05:41:19;14.80;99.90
23100;DHT22;53791;50.696;4.396;2022-08-21T05:43:47;14.80;99.90
23100;DHT22;53791;50.696;4.396;2022-08-21T05:46:15;14.80;99.90
23100;DHT22;53791;50.696;4.396;2022-08-21T05:48:42;15.00;99.90
23100;DHT22;53791;50.696;4.396;2022-08-21T05:51:12;15.10;99.90
23100;DHT22;53791;50.696;4.396;2022-08-21T05:53:42;15.20;99.90
23100;DHT22;53791;50.696;4.396;2022-08-21T05:56:12;15.40;99.90
23100;DHT22;53791;50.696;4.396;2022-08-21T05:58:39;15.50;99.90
23100;DHT22;53791;50.696;4.396;2022-08-21T06:01:07;15.60;99.90
23100;DHT22;53791;50.696;4.396;2022-08-21T06:03:38;15.80;99.90
23100;DHT22;53791;50.696;4.396;2022-08-21T06:06:05;16.10;99.90
23100;DHT22;53791;50.696;4.396;2022-08-21T06:08:33;16.30;99.90
23100;DHT22;53791;50.696;4.396;2022-08-21T06:11:02;16.60;99.90
23100;DHT22;53791;50.696;4.396;2022-08-21T06:13:30;16.70;99.90
23100;DHT22;53791;50.696;4.396;2022-08-21T06:16:05;16.90;99.90
23100;DHT22;53791;50.696;4.396;2022-08-21T06:18:34;17.20;99.90
23100;DHT22;53791;50.696;4.396;2022-08-21T06:21:02;17.60;99.90
23100;DHT22;53791;50.696;4.396;2022-08-21T06:23:30;17.70;99.90
23100;DHT22;53791;50.696;4.396;2022-08-21T06:25:57;18.00;99.90
23100;DHT22;53791;50.696;4.396;2022-08-21T06:28:25;18.60;99.90
23100;DHT22;53791;50.696;4.396;2022-08-21T06:30:52;19.10;99.90
23100;DHT22;53791;50.696;4.396;2022-08-21T06:33:20;19.30;99.90
23100;DHT22;53791;50.696;4.396;2022-08-21T06:35:47;19.60;99.90
23100;DHT22;53791;50.696;4.396;2022-08-21T06:38:15;19.90;99.90
23100;DHT22;53791;50.696;4.396;2022-08-21T06:40:43;20.20;99.90
23100;DHT22;53791;50.696;4.396;2022-08-21T06:43:15;20.50;99.90
23100;DHT22;53791;50.696;4.396;2022-08-21T06:45:43;20.70;99.90
23100;DHT22;53791;50.696;4.396;2022-08-21T06:48:11;21.00;99.90
23100;DHT22;53791;50.696;4.396;2022-08-21T06:50:38;21.40;99.90
23100;DHT22;53791;50.696;4.396;2022-08-21T06:53:08;21.90;99.90
23100;DHT22;53791;50.696;4.396;2022-08-21T06:55:37;22.10;99.90
23100;DHT22;53791;50.696;4.396;2022-08-21T06:58:05;22.10;99.90
23100;DHT22;53791;50.696;4.396;2022-08-21T07:00:34;22.40;99.90
23100;DHT22;53791;50.696;4.396;2022-08-21T07:03:02;22.90;99.90
23100;DHT22;53791;50.696;4.396;2022-08-21T07:05:30;22.90;99.90
23100;DHT22;53791;50.696;4.396;2022-08-21T07:07:58;22.80;99.90
23100;DHT22;53791;50.696;4.396;2022-08-21T07:10:26;22.90;99.90
23100;DHT22;53791;50.696;4.396;2022-08-21T07:12:54;23.30;99.90
23100;DHT22;53791;50.696;4.396;2022-08-21T07:15:21;23.40;99.90
23100;DHT22;53791;50.696;4.396;2022-08-21T07:17:49;23.60;99.90
23100;DHT22;53791;50.696;4.396;2022-08-21T07:20:16;24.20;99.90
23100;DHT22;53791;50.696;4.396;2022-08-21T07:22:44;24.80;99.90
23100;DHT22;53791;50.696;4.396;2022-08-21T07:25:12;25.20;99.90
23100;DHT22;53791;50.696;4.396;2022-08-21T07:27:39;25.60;99.90
23100;DHT22;53791;50.696;4.396;2022-08-21T07:30:07;26.00;99.90
23100;DHT22;53791;50.696;4.396;2022-08-21T07:32:35;26.20;99.90
23100;DHT22;53791;50.696;4.396;2022-08-21T07:35:03;26.20;99.90
23100;DHT22;53791;50.696;4.396;2022-08-21T07:37:30;25.80;99.90
23100;DHT22;53791;50.696;4.396;2022-08-21T07:39:58;25.60;99.90
23100;DHT22;53791;50.696;4.396;2022-08-21T07:42:25;25.60;99.90
23100;DHT22;53791;50.696;4.396;2022-08-21T07:44:55;25.80;99.90
23100;DHT22;53791;50.696;4.396;2022-08-21T07:47:22;25.00;99.90
23100;DHT22;53791;50.696;4.396;2022-08-21T07:49:50;24.60;99.90
23100;DHT22;53791;50.696;4.396;2022-08-21T07:52:17;24.40;99.90
23100;DHT22;53791;50.696;4.396;2022-08-21T07:54:46;24.50;99.90
23100;DHT22;53791;50.696;4.396;2022-08-21T07:57:13;24.10;99.90
23100;DHT22;53791;50.696;4.396;2022-08-21T07:59:41;24.20;99.90
23100;DHT22;53791;50.696;4.396;2022-08-21T08:02:08;24.50;99.90
23100;DHT22;53791;50.696;4.396;2022-08-21T08:04:36;24.20;99.90
23100;DHT22;53791;50.696;4.396;2022-08-21T08:07:03;23.60;99.90
23100;DHT22;53791;50.696;4.396;2022-08-21T08:09:31;23.40;99.90
23100;DHT22;53791;50.696;4.396;2022-08-21T08:11:58;23.10;99.90
23100;DHT22;53791;50.696;4.396;2022-08-21T08:14:26;23.00;99.90
23100;DHT22;53791;50.696;4.396;2022-08-21T08:16:54;23.50;99.90
23100;DHT22;53791;50.696;4.396;2022-08-21T08:19:21;23.80;99.90
23100;DHT22;53791;50.696;4.396;2022-08-21T08:21:49;24.20;99.90
23100;DHT22;53791;50.696;4.396;2022-08-21T08:24:16;24.30;99.90
23100;DHT22;53791;50.696;4.396;2022-08-21T08:26:44;24.80;99.90
23100;DHT22;53791;50.696;4.396;2022-08-21T08:29:11;24.60;99.90
23100;DHT22;53791;50.696;4.396;2022-08-21T08:31:39;24.10;99.90
23100;DHT22;53791;50.696;4.396;2022-08-21T08:34:07;24.00;99.90
23100;DHT22;53791;50.696;4.396;2022-08-21T08:36:35;23.80;99.90
23100;DHT22;53791;50.696;4.396;2022-08-21T08:39:05;23.80;99.90
23100;DHT22;53791;50.696;4.396;2022-08-21T08:41:33;23.20;99.90
23100;DHT22;53791;50.696;4.396;2022-08-21T08:44:03;23.60;99.90
23100;DHT22;53791;50.696;4.396;2022-08-21T08:46:50;24.00;99.90
23100;DHT22;53791;50.696;4.396;2022-08-21T08:49:24;24.60;99.90
23100;DHT22;53791;50.696;4.396;2022-08-21T08:52:07;24.30;99.90
23100;DHT22;53791;50.696;4.396;2022-08-21T08:54:46;24.20;99.90
23100;DHT22;53791;50.696;4.396;2022-08-21T08:57:18;23.30;99.90
23100;DHT22;53791;50.696;4.396;2022-08-21T08:59:48;23.50;99.90
23100;DHT22;53791;50.696;4.396;2022-08-21T09:02:17;24.10;99.90
23100;DHT22;53791;50.696;4.396;2022-08-21T09:04:47;24.60;99.90
23100;DHT22;53791;50.696;4.396;2022-08-21T09:07:23;25.30;99.90
23100;DHT22;53791;50.696;4.396;2022-08-21T09:18:04;26.20;99.90
23100;DHT22;53791;50.696;4.396;2022-08-21T09:20:57;25.90;99.90
23100;DHT22;53791;50.696;4.396;2022-08-21T09:23:40;25.80;99.90
23100;DHT22;53791;50.696;4.396;2022-08-21T09:26:19;26.50;99.90
23100;DHT22;53791;50.696;4.396;2022-08-21T09:28:52;26.60;99.90
23100;DHT22;53791;50.696;4.396;2022-08-21T09:31:25;26.90;99.90
23100;DHT22;53791;50.696;4.396;2022-08-21T09:33:58;27.00;99.90
23100;DHT22;53791;50.696;4.396;2022-08-21T09:36:36;27.20;99.90
23100;DHT22;53791;50.696;4.396;2022-08-21T09:38:59;26.30;99.90
23100;DHT22;53791;50.696;4.396;2022-08-21T09:41:32;25.40;99.90
23100;DHT22;53791;50.696;4.396;2022-08-21T09:44:02;25.30;99.90
23100;DHT22;53791;50.696;4.396;2022-08-21T09:46:30;25.40;99.90
23100;DHT22;53791;50.696;4.396;2022-08-21T09:49:01;25.10;99.90
23100;DHT22;53791;50.696;4.396;2022-08-21T09:51:36;24.60;99.90
23100;DHT22;53791;50.696;4.396;2022-08-21T09:54:14;24.50;99.90
23100;DHT22;53791;50.696;4.396;2022-08-21T09:56:50;24.80;99.90
23100;DHT22;53791;50.696;4.396;2022-08-21T09:59:35;25.00;99.90
23100;DHT22;53791;50.696;4.396;2022-08-21T10:02:01;25.50;99.90
23100;DHT22;53791;50.696;4.396;2022-08-21T10:04:32;25.80;99.90
23100;DHT22;53791;50.696;4.396;2022-08-21T10:07:13;25.80;99.90
23100;DHT22;53791;50.696;4.396;2022-08-21T10:09:43;25.50;99.90
23100;DHT22;53791;50.696;4.396;2022-08-21T10:12:20;25.50;99.90
23100;DHT22;53791;50.696;4.396;2022-08-21T10:15:02;25.60;99.90
23100;DHT22;53791;50.696;4.396;2022-08-21T10:20:25;27.00;99.90
23100;DHT22;53791;50.696;4.396;2022-08-21T10:23:21;26.80;99.90
23100;DHT22;53791;50.696;4.396;2022-08-21T10:26:05;26.10;99.90
23100;DHT22;53791;50.696;4.396;2022-08-21T10:34:22;27.10;99.90
23100;DHT22;53791;50.696;4.396;2022-08-21T10:36:57;27.50;99.90
23100;DHT22;53791;50.696;4.396;2022-08-21T10:39:47;27.70;99.90
23100;DHT22;53791;50.696;4.396;2022-08-21T10:42:22;28.00;99.90
23100;DHT22;53791;50.696;4.396;2022-08-21T10:44:55;28.00;99.90
23100;DHT22;53791;50.696;4.396;2022-08-21T10:47:31;28.10;99.90
23100;DHT22;53791;50.696;4.396;2022-08-21T10:55:42;26.50;99.90
23100;DHT22;53791;50.696;4.396;2022-08-21T10:58:12;26.50;99.90
23100;DHT22;53791;50.696;4.396;2022-08-21T11:00:56;26.00;99.90
23100;DHT22;53791;50.696;4.396;2022-08-21T11:03:39;26.00;99.90
23100;DHT22;53791;50.696;4.396;2022-08-21T11:08:44;26.20;99.90
23100;DHT22;53791;50.696;4.396;2022-08-21T11:11:26;26.30;99.90
23100;DHT22;53791;50.696;4.396;2022-08-21T11:14:04;26.20;99.90
23100;DHT22;53791;50.696;4.396;2022-08-21T11:16:40;26.20;99.90
23100;DHT22;53791;50.696;4.396;2022-08-21T11:19:17;26.60;99.90
23100;DHT22;53791;50.696;4.396;2022-08-21T11:22:14;26.00;99.90
23100;DHT22;53791;50.696;4.396;2022-08-21T11:30:06;24.10;99.90
23100;DHT22;53791;50.696;4.396;2022-08-21T11:33:00;24.00;99.90
23100;DHT22;53791;50.696;4.396;2022-08-21T11:35:32;24.00;99.90
23100;DHT22;53791;50.696;4.396;2022-08-21T11:43:36;23.50;99.90
23100;DHT22;53791;50.696;4.396;2022-08-21T11:46:11;23.60;99.90
23100;DHT22;53791;50.696;4.396;2022-08-21T11:49:00;23.80;99.90
23100;DHT22;53791;50.696;4.396;2022-08-21T11:51:37;23.80;99.90
23100;DHT22;53791;50.696;4.396;2022-08-21T11:56:40;24.80;99.90
23100;DHT22;53791;50.696;4.396;2022-08-21T11:59:23;25.40;99.90
23100;DHT22;53791;50.696;4.396;2022-08-21T12:01:44;25.80;99.90
23100;DHT22;53791;50.696;4.396;2022-08-21T12:06:48;25.90;99.90
23100;DHT22;53791;50.696;4.396;2022-08-21T12:09:34;25.70;99.90
23100;DHT22;53791;50.696;4.396;2022-08-21T12:12:28;25.20;99.90
23100;DHT22;53791;50.696;4.396;2022-08-21T12:18:02;26.20;99.90
23100;DHT22;53791;50.696;4.396;2022-08-21T12:20:44;26.30;99.90
23100;DHT22;53791;50.696;4.396;2022-08-21T12:23:18;26.30;99.90
23100;DHT22;53791;50.696;4.396;2022-08-21T12:26:03;26.30;99.90
23100;DHT22;53791;50.696;4.396;2022-08-21T12:28:31;26.40;99.90
23100;DHT22;53791;50.696;4.396;2022-08-21T12:30:59;26.40;99.90
23100;DHT22;53791;50.696;4.396;2022-08-21T12:33:32;26.60;99.90
23100;DHT22;53791;50.696;4.396;2022-08-21T12:36:09;26.50;99.90
23100;DHT22;53791;50.696;4.396;2022-08-21T12:41:30;27.10;99.90
23100;DHT22;53791;50.696;4.396;2022-08-21T12:44:12;26.80;99.90
23100;DHT22;53791;50.696;4.396;2022-08-21T12:46:55;26.60;99.90
23100;DHT22;53791;50.696;4.396;2022-08-21T12:52:09;27.60;99.90
23100;DHT22;53791;50.696;4.396;2022-08-21T12:54:40;27.70;99.90
23100;DHT22;53791;50.696;4.396;2022-08-21T12:57:16;27.70;99.90
23100;DHT22;53791;50.696;4.396;2022-08-21T12:59:39;27.20;99.90
23100;DHT22;53791;50.696;4.396;2022-08-21T13:02:18;27.20;99.90
23100;DHT22;53791;50.696;4.396;2022-08-21T13:04:47;26.90;99.90
23100;DHT22;53791;50.696;4.396;2022-08-21T13:07:21;25.80;99.90
23100;DHT22;53791;50.696;4.396;2022-08-21T13:09:54;24.90;99.90
23100;DHT22;53791;50.696;4.396;2022-08-21T13:12:23;24.30;99.90
23100;DHT22;53791;50.696;4.396;2022-08-21T13:14:52;24.20;99.90
23100;DHT22;53791;50.696;4.396;2022-08-21T13:17:22;24.20;99.90
23100;DHT22;53791;50.696;4.396;2022-08-21T13:19:59;24.20;99.90
23100;DHT22;53791;50.696;4.396;2022-08-21T13:22:28;23.90;99.90
23100;DHT22;53791;50.696;4.396;2022-08-21T13:24:56;23.70;99.90
23100;DHT22;53791;50.696;4.396;2022-08-21T13:27:30;23.90;99.90
23100;DHT22;53791;50.696;4.396;2022-08-21T13:30:03;23.80;99.90
23100;DHT22;53791;50.696;4.396;2022-08-21T13:32:33;23.90;99.90
23100;DHT22;53791;50.696;4.396;2022-08-21T13:35:11;23.90;99.90
23100;DHT22;53791;50.696;4.396;2022-08-21T13:37:41;23.80;99.90
23100;DHT22;53791;50.696;4.396;2022-08-21T13:40:17;23.50;99.90
23100;DHT22;53791;50.696;4.396;2022-08-21T13:42:43;23.20;99.90
23100;DHT22;53791;50.696;4.396;2022-08-21T13:45:14;23.20;99.90
23100;DHT22;53791;50.696;4.396;2022-08-21T13:47:42;23.20;99.90
23100;DHT22;53791;50.696;4.396;2022-08-21T13:50:12;23.10;99.90
23100;DHT22;53791;50.696;4.396;2022-08-21T13:52:53;23.00;99.90
23100;DHT22;53791;50.696;4.396;2022-08-21T13:55:17;23.20;99.90
23100;DHT22;53791;50.696;4.396;2022-08-21T13:57:45;23.30;99.90
23100;DHT22;53791;50.696;4.396;2022-08-21T14:00:20;23.20;99.90
23100;DHT22;53791;50.696;4.396;2022-08-21T14:02:50;23.40;99.90
23100;DHT22;53791;50.696;4.396;2022-08-21T14:05:27;23.60;99.90
23100;DHT22;53791;50.696;4.396;2022-08-21T14:08:18;23.60;99.90
23100;DHT22;53791;50.696;4.396;2022-08-21T14:10:46;23.90;99.90
23100;DHT22;53791;50.696;4.396;2022-08-21T14:16:13;24.10;99.90
23100;DHT22;53791;50.696;4.396;2022-08-21T14:18:46;24.10;99.90
23100;DHT22;53791;50.696;4.396;2022-08-21T14:21:22;23.80;99.90
23100;DHT22;53791;50.696;4.396;2022-08-21T14:23:43;23.60;99.90
23100;DHT22;53791;50.696;4.396;2022-08-21T14:26:11;23.20;99.90
23100;DHT22;53791;50.696;4.396;2022-08-21T14:28:40;23.20;99.90
23100;DHT22;53791;50.696;4.396;2022-08-21T14:31:17;23.20;99.90
23100;DHT22;53791;50.696;4.396;2022-08-21T14:33:42;23.20;99.90
23100;DHT22;53791;50.696;4.396;2022-08-21T14:36:10;23.50;99.90
23100;DHT22;53791;50.696;4.396;2022-08-21T14:38:39;23.50;99.90
23100;DHT22;53791;50.696;4.396;2022-08-21T14:41:19;23.70;99.90
23100;DHT22;53791;50.696;4.396;2022-08-21T14:43:37;23.80;99.90
23100;DHT22;53791;50.696;4.396;2022-08-21T14:46:05;23.90;99.90
23100;DHT22;53791;50.696;4.396;2022-08-21T14:48:32;23.70;99.90
23100;DHT22;53791;50.696;4.396;2022-08-21T14:51:14;23.80;99.90
23100;DHT22;53791;50.696;4.396;2022-08-21T14:53:42;23.90;99.90
23100;DHT22;53791;50.696;4.396;2022-08-21T14:56:12;23.90;99.90
23100;DHT22;53791;50.696;4.396;2022-08-21T14:58:44;23.90;99.90
23100;DHT22;53791;50.696;4.396;2022-08-21T15:01:13;23.80;99.90
23100;DHT22;53791;50.696;4.396;2022-08-21T15:03:41;23.80;99.90
23100;DHT22;53791;50.696;4.396;2022-08-21T19:51:06;19.40;99.90
23100;DHT22;53791;50.696;4.396;2022-08-21T19:53:34;19.20;99.90
23100;DHT22;53791;50.696;4.396;2022-08-21T19:56:02;19.40;99.90
23100;DHT22;53791;50.696;4.396;2022-08-21T19:58:34;19.50;99.90
23100;DHT22;53791;50.696;4.396;2022-08-21T20:01:01;19.60;99.90
23100;DHT22;53791;50.696;4.396;2022-08-21T20:03:29;19.80;99.90
23100;DHT22;53791;50.696;4.396;2022-08-21T20:05:57;20.00;99.90
23100;DHT22;53791;50.696;4.396;2022-08-21T20:08:25;20.10;99.90
23100;DHT22;53791;50.696;4.396;2022-08-21T20:10:55;20.30;99.90
23100;DHT22;53791;50.696;4.396;2022-08-21T20:13:23;20.40;99.90
23100;DHT22;53791;50.696;4.396;2022-08-21T20:15:52;20.50;99.90
23100;DHT22;53791;50.696;4.396;2022-08-21T20:18:20;20.60;99.90
23100;DHT22;53791;50.696;4.396;2022-08-21T20:20:47;20.50;99.90
23100;DHT22;53791;50.696;4.396;2022-08-21T20:23:15;20.40;99.90
23100;DHT22;53791;50.696;4.396;2022-08-21T20:25:45;20.50;99.90
23100;DHT22;53791;50.696;4.396;2022-08-21T20:28:13;20.60;99.90
23100;DHT22;53791;50.696;4.396;2022-08-21T20:30:41;20.70;99.90
23100;DHT22;53791;50.696;4.396;2022-08-21T20:33:09;20.80;99.90
23100;DHT22;53791;50.696;4.396;2022-08-21T20:35:37;20.90;99.90
23100;DHT22;53791;50.696;4.396;2022-08-21T20:38:05;20.90;99.90
23100;DHT22;53791;50.696;4.396;2022-08-21T20:40:33;21.00;99.90
23100;DHT22;53791;50.696;4.396;2022-08-21T20:43:01;20.90;99.90
23100;DHT22;53791;50.696;4.396;2022-08-21T20:45:32;21.00;99.90
23100;DHT22;53791;50.696;4.396;2022-08-21T20:48:19;20.90;99.90
23100;DHT22;53791;50.696;4.396;2022-08-21T20:50:51;20.80;99.90
23100;DHT22;53791;50.696;4.396;2022-08-21T20:53:35;20.90;99.90
23100;DHT22;53791;50.696;4.396;2022-08-21T20:56:04;20.80;99.90
23100;DHT22;53791;50.696;4.396;2022-08-21T20:58:41;20.80;99.90
23100;DHT22;53791;50.696;4.396;2022-08-21T21:01:09;20.80;99.90
23100;DHT22;53791;50.696;4.396;2022-08-21T21:03:43;20.80;99.90
23100;DHT22;53791;50.696;4.396;2022-08-21T21:06:30;20.60;99.90
23100;DHT22;53791;50.696;4.396;2022-08-21T21:09:04;20.70;99.90
23100;DHT22;53791;50.696;4.396;2022-08-21T21:11:39;20.70;99.90
23100;DHT22;53791;50.696;4.396;2022-08-21T21:14:16;20.70;99.90
23100;DHT22;53791;50.696;4.396;2022-08-21T21:16:56;20.60;99.90
23100;DHT22;53791;50.696;4.396;2022-08-21T21:22:31;20.50;99.90
23100;DHT22;53791;50.696;4.396;2022-08-21T21:25:20;20.40;99.90
23100;DHT22;53791;50.696;4.396;2022-08-21T21:27:56;20.50;99.90
23100;DHT22;53791;50.696;4.396;2022-08-21T21:30:34;20.40;99.90
23100;DHT22;53791;50.696;4.396;2022-08-21T21:32:56;20.40;99.90
23100;DHT22;53791;50.696;4.396;2022-08-21T21:35:43;20.20;99.90